Time;durP1;ratioP1;P1;durP2;ratioP2;P2;SDS_P1;SDS_P2;PMS_P1;PMS_P2;Temp;Humidity;BMP_temperature;BMP_pressure;BME280_temperature;BME280_humidity;BME280_pressure;Samples;Min_cycle;Max_cycle;Signal;HPM_P1;HPM_P2
2023/08/07 00:02:24;;;;;;;;;;;;;;;13.22;100.00;101153.50;10455760;28;19931;-69
2023/08/07 00:07:26;;;;;;;;;;;;;;;13.20;100.00;101156.25;10455479;28;19931;-70
2023/08/07 00:12:28;;;;;;;;;;;;;;;13.20;100.00;101150.16;10457020;28;19939;-69
2023/08/07 00:17:31;;;;;;;;;;;;;;;13.12;100.00;101155.03;10462743;28;20380;-69
2023/08/07 00:22:33;;;;;;;;;;;;;;;13.25;100.00;101152.50;10462555;28;19929;-69
2023/08/07 00:27:35;;;;;;;;;;;;;;;13.25;100.00;101161.22;10444604;28;19931;-69
2023/08/07 00:32:37;;;;;;;;;;;;;;;13.10;100.00;101159.56;10444430;28;19924;-69
2023/08/07 00:37:40;;;;;;;;;;;;;;;13.11;100.00;101158.59;10461926;28;19932;-69
2023/08/07 00:42:42;;;;;;;;;;;;;;;13.03;100.00;101156.47;10461876;28;19925;-69
2023/08/07 00:47:44;;;;;;;;;;;;;;;13.07;100.00;101173.72;10443942;28;19924;-69
2023/08/07 00:52:46;;;;;;;;;;;;;;;13.11;100.00;101180.50;10443586;28;20334;-69
2023/08/07 00:57:49;;;;;;;;;;;;;;;13.04;100.00;101189.66;10461346;28;19925;-69
2023/08/07 01:02:51;;;;;;;;;;;;;;;13.05;100.00;101195.78;10443278;28;20011;-69
2023/08/07 01:07:54;;;;;;;;;;;;;;;13.10;100.00;101191.09;10443036;28;19935;-69
2023/08/07 01:12:59;;;;;;;;;;;;;;;13.15;100.00;101202.16;10460525;28;19947;-69
2023/08/07 01:18:04;;;;;;;;;;;;;;;12.96;100.00;101200.66;10442630;28;20364;-69
2023/08/07 01:23:06;;;;;;;;;;;;;;;12.87;100.00;101203.00;10459985;28;20007;-70
2023/08/07 01:28:16;;;;;;;;;;;;;;;13.10;100.00;101198.97;10441732;28;19947;-68
2023/08/07 01:33:22;;;;;;;;;;;;;;;13.02;100.00;101205.53;10442410;28;19924;-69
2023/08/07 01:38:25;;;;;;;;;;;;;;;13.12;100.00;101202.34;10459784;28;19931;-69
2023/08/07 01:43:27;;;;;;;;;;;;;;;13.27;100.00;101196.13;10425302;28;19924;-69
2023/08/07 01:48:29;;;;;;;;;;;;;;;13.24;100.00;101193.69;10441473;28;20287;-70
2023/08/07 01:53:32;;;;;;;;;;;;;;;13.29;100.00;101193.41;10459033;28;19960;-69
2023/08/07 01:58:34;;;;;;;;;;;;;;;13.10;100.00;101202.44;10458623;28;20403;-69
2023/08/07 02:03:36;;;;;;;;;;;;;;;13.29;100.00;101204.78;10458675;28;19931;-69
2023/08/07 02:08:38;;;;;;;;;;;;;;;13.40;100.00;101203.28;10458373;28;19970;-69
2023/08/07 02:13:41;;;;;;;;;;;;;;;13.18;100.00;101199.34;10458377;28;19932;-69
2023/08/07 02:18:43;;;;;;;;;;;;;;;13.16;100.00;101209.97;10458057;28;19924;-69
2023/08/07 02:23:45;;;;;;;;;;;;;;;13.04;100.00;101210.69;10458042;28;19925;-69
2023/08/07 02:28:47;;;;;;;;;;;;;;;13.09;100.00;101205.16;10439871;28;20386;-69
2023/08/07 02:33:50;;;;;;;;;;;;;;;12.98;100.00;101205.84;10457776;28;19925;-70
2023/08/07 02:38:52;;;;;;;;;;;;;;;12.95;100.00;101201.59;10457238;28;19924;-70
2023/08/07 02:43:55;;;;;;;;;;;;;;;13.00;100.00;101212.66;10457291;28;20421;-70
2023/08/07 02:48:57;;;;;;;;;;;;;;;13.18;100.00;101208.09;10457059;28;20277;-69
2023/08/07 02:53:59;;;;;;;;;;;;;;;13.15;100.00;101210.06;10457021;28;19929;-69
2023/08/07 02:59:01;;;;;;;;;;;;;;;13.13;100.00;101211.91;10456948;28;19931;-70
2023/08/07 03:04:04;;;;;;;;;;;;;;;13.09;100.00;101208.63;10456739;28;19929;-69
2023/08/07 03:09:06;;;;;;;;;;;;;;;13.23;100.00;101201.69;10456550;28;19931;-70
2023/08/07 03:14:08;;;;;;;;;;;;;;;13.12;100.00;101220.75;10456658;28;19925;-70
2023/08/07 03:19:10;;;;;;;;;;;;;;;13.17;100.00;101203.75;10422432;28;19925;-69
2023/08/07 03:24:13;;;;;;;;;;;;;;;13.25;100.00;101210.34;10456529;28;19932;-70
2023/08/07 03:29:15;;;;;;;;;;;;;;;13.01;100.00;101201.22;10456254;28;19932;-69
2023/08/07 03:34:17;;;;;;;;;;;;;;;13.06;100.00;101195.66;10438509;28;19924;-70
2023/08/07 03:39:19;;;;;;;;;;;;;;;13.04;100.00;101204.59;10438570;28;19924;-70
2023/08/07 03:44:22;;;;;;;;;;;;;;;13.04;100.00;101213.31;10456038;28;19931;-69
2023/08/07 03:49:24;;;;;;;;;;;;;;;13.05;100.00;101212.41;10460400;28;19951;-70
2023/08/07 03:54:26;;;;;;;;;;;;;;;12.96;100.00;101215.56;10446053;28;19929;-69
2023/08/07 03:59:28;;;;;;;;;;;;;;;13.01;100.00;101219.63;10463427;28;19931;-70
2023/08/07 04:04:31;;;;;;;;;;;;;;;13.09;100.00;101210.44;10463352;28;19925;-70
2023/08/07 04:09:33;;;;;;;;;;;;;;;12.91;100.00;101205.38;10445324;28;19925;-70
2023/08/07 04:14:35;;;;;;;;;;;;;;;13.01;100.00;101201.22;10445275;28;19946;-69
2023/08/07 04:19:37;;;;;;;;;;;;;;;12.94;100.00;101199.91;10445564;28;19929;-69
2023/08/07 04:24:40;;;;;;;;;;;;;;;12.75;100.00;101202.81;10462504;28;20394;-70
2023/08/07 04:29:42;;;;;;;;;;;;;;;13.05;100.00;101214.19;10444613;28;19925;-69
2023/08/07 04:34:44;;;;;;;;;;;;;;;12.82;100.00;101208.53;10462177;28;20260;-69
2023/08/07 04:39:46;;;;;;;;;;;;;;;12.91;100.00;101220.25;10461877;28;19948;-70
2023/08/07 04:44:49;;;;;;;;;;;;;;;13.04;100.00;101220.38;10461668;28;19924;-70
2023/08/07 04:49:51;;;;;;;;;;;;;;;12.93;100.00;101221.03;10461516;28;19947;-69
2023/08/07 04:54:53;;;;;;;;;;;;;;;12.87;100.00;101232.75;10443791;28;19925;-70
2023/08/07 04:59:56;;;;;;;;;;;;;;;12.98;100.00;101245.25;10460996;28;19924;-69
2023/08/07 05:04:58;;;;;;;;;;;;;;;13.00;100.00;101238.13;10460913;28;20387;-69
2023/08/07 05:10:01;;;;;;;;;;;;;;;13.14;100.00;101251.25;10460665;28;20280;-69
2023/08/07 05:15:03;;;;;;;;;;;;;;;13.08;100.00;101259.53;10442900;28;19925;-70
2023/08/07 05:20:06;;;;;;;;;;;;;;;13.02;100.00;101252.84;10460409;28;19931;-70
2023/08/07 05:25:09;;;;;;;;;;;;;;;13.19;100.00;101270.22;10460139;28;20398;-70
2023/08/07 05:30:11;;;;;;;;;;;;;;;13.24;100.00;101274.38;10442364;28;19931;-69
2023/08/07 05:35:14;;;;;;;;;;;;;;;13.21;100.00;101275.38;10442104;28;20016;-70
2023/08/07 05:40:16;;;;;;;;;;;;;;;13.13;100.00;101275.88;10459627;28;20016;-70
2023/08/07 05:45:18;;;;;;;;;;;;;;;13.28;100.00;101282.00;10459353;28;19924;-69
2023/08/07 05:50:20;;;;;;;;;;;;;;;13.32;100.00;101288.78;10459101;28;19931;-70
2023/08/07 05:55:22;;;;;;;;;;;;;;;13.49;100.00;101293.00;10459140;28;19931;-70
2023/08/07 06:00:25;;;;;;;;;;;;;;;13.61;100.00;101291.38;10440916;28;20273;-69
2023/08/07 06:05:27;;;;;;;;;;;;;;;13.70;100.00;101292.59;10458772;28;19932;-69
2023/08/07 06:10:29;;;;;;;;;;;;;;;13.55;100.00;101316.28;10440521;28;19925;-69
2023/08/07 06:15:32;;;;;;;;;;;;;;;13.43;100.00;101324.09;10440746;28;19972;-70
2023/08/07 06:20:35;;;;;;;;;;;;;;;13.51;100.00;101327.94;10440339;28;20305;-69
2023/08/07 06:25:37;;;;;;;;;;;;;;;13.25;100.00;101326.88;10440473;28;19925;-70
2023/08/07 06:30:39;;;;;;;;;;;;;;;13.46;100.00;101334.44;10439770;28;20459;-70
2023/08/07 06:35:42;;;;;;;;;;;;;;;13.64;100.00;101329.81;10457751;28;19966;-70
2023/08/07 06:40:45;;;;;;;;;;;;;;;13.80;100.00;101338.47;10457543;28;19929;-70
2023/08/07 06:45:50;;;;;;;;;;;;;;;14.11;100.00;101331.25;10457447;28;20356;-69
2023/08/07 06:50:52;;;;;;;;;;;;;;;13.97;100.00;101331.28;10439622;28;19971;-70
2023/08/07 06:55:55;;;;;;;;;;;;;;;14.10;100.00;101346.22;10456881;28;19933;-69
2023/08/07 07:00:58;;;;;;;;;;;;;;;14.05;100.00;101340.38;10456829;28;19979;-69
2023/08/07 07:06:01;;;;;;;;;;;;;;;14.49;100.00;101334.06;10456696;28;20044;-69
2023/08/07 07:11:04;;;;;;;;;;;;;;;14.65;100.00;101339.19;10456618;28;19924;-69
2023/08/07 07:16:06;;;;;;;;;;;;;;;15.19;100.00;101335.56;10438954;28;19924;-69
2023/08/07 07:21:09;;;;;;;;;;;;;;;15.02;100.00;101342.00;10422456;28;19924;-69
2023/08/07 07:26:11;;;;;;;;;;;;;;;15.15;100.00;101349.09;10464250;28;20390;-68
2023/08/07 07:31:13;;;;;;;;;;;;;;;15.40;100.00;101351.72;10464538;28;20284;-68
2023/08/07 07:36:16;;;;;;;;;;;;;;;15.39;100.00;101363.22;10464702;28;20007;-69
2023/08/07 07:41:18;;;;;;;;;;;;;;;15.23;100.00;101365.22;10446660;28;20020;-69
2023/08/07 07:46:20;;;;;;;;;;;;;;;15.25;100.00;101376.53;10464007;28;19931;-69
2023/08/07 07:51:23;;;;;;;;;;;;;;;14.90;100.00;101390.28;10463844;28;19925;-69
2023/08/07 07:56:25;;;;;;;;;;;;;;;16.45;100.00;101375.19;10445688;28;19932;-69
2023/08/07 08:01:28;;;;;;;;;;;;;;;16.62;100.00;101368.66;10463477;28;20375;-70
2023/08/07 08:06:30;;;;;;;;;;;;;;;16.36;100.00;101368.78;10463433;28;19931;-70
2023/08/07 08:11:33;;;;;;;;;;;;;;;15.66;100.00;101401.03;10477487;22;19925;-67
2023/08/07 08:16:35;;;;;;;;;;;;;;;14.99;100.00;101418.66;10445808;28;20016;-66
2023/08/07 08:21:38;;;;;;;;;;;;;;;14.95;100.00;101434.81;10462694;28;20391;-65
2023/08/07 08:26:41;;;;;;;;;;;;;;;15.14;100.00;101440.53;10463093;28;20364;-65
2023/08/07 08:31:43;;;;;;;;;;;;;;;15.28;100.00;101430.84;10462172;28;20225;-65
2023/08/07 08:36:46;;;;;;;;;;;;;;;16.32;100.00;101428.09;10462356;28;19925;-65
2023/08/07 08:41:50;;;;;;;;;;;;;;;16.71;100.00;101424.38;10462212;28;20016;-65
2023/08/07 08:46:54;;;;;;;;;;;;;;;16.84;100.00;101428.75;10444092;28;20260;-65
2023/08/07 08:51:56;;;;;;;;;;;;;;;17.35;100.00;101419.69;10444688;28;20008;-65
2023/08/07 08:56:59;;;;;;;;;;;;;;;17.75;100.00;101420.13;10443617;28;19932;-66
2023/08/07 09:02:01;;;;;;;;;;;;;;;17.06;100.00;101428.00;10461156;28;19932;-66
2023/08/07 09:07:04;;;;;;;;;;;;;;;16.89;100.00;101419.56;10443532;28;20399;-66
2023/08/07 09:12:08;;;;;;;;;;;;;;;16.32;100.00;101436.00;10443072;28;20005;-66
2023/08/07 09:17:10;;;;;;;;;;;;;;;15.41;100.00;101468.66;10460538;28;19929;-65
2023/08/07 09:22:12;;;;;;;;;;;;;;;15.53;100.00;101467.00;10460413;28;19970;-66
2023/08/07 09:27:14;;;;;;;;;;;;;;;16.55;100.00;101476.66;10443126;28;19931;-67
2023/08/07 09:32:18;;;;;;;;;;;;;;;17.06;100.00;101463.28;10460022;28;20376;-67
2023/08/07 09:37:20;;;;;;;;;;;;;;;17.51;100.00;101473.13;10460382;28;19928;-67
2023/08/07 09:42:23;;;;;;;;;;;;;;;17.57;100.00;101469.19;10441922;28;19925;-67
2023/08/07 09:47:25;;;;;;;;;;;;;;;17.75;100.00;101465.13;10458693;28;19925;-66
2023/08/07 09:52:28;;;;;;;;;;;;;;;17.30;100.00;101469.47;10459050;28;19991;-67
2023/08/07 09:57:30;;;;;;;;;;;;;;;16.50;100.00;101482.25;10459072;28;20023;-68
2023/08/07 10:02:32;;;;;;;;;;;;;;;15.92;100.00;101491.63;10459228;28;19924;-68
2023/08/07 10:07:35;;;;;;;;;;;;;;;16.56;100.00;101486.28;10441607;28;19931;-68
2023/08/07 10:12:38;;;;;;;;;;;;;;;18.01;93.67;101478.19;10458373;28;19924;-69
2023/08/07 10:17:40;;;;;;;;;;;;;;;18.50;92.62;101487.53;10440782;28;19929;-67
2023/08/07 10:22:42;;;;;;;;;;;;;;;17.39;89.10;101490.78;10458565;28;19924;-69
2023/08/07 10:27:45;;;;;;;;;;;;;;;17.21;93.34;101497.47;10440957;28;19925;-70
2023/08/07 10:32:48;;;;;;;;;;;;;;;17.63;92.53;101501.34;10439908;28;19929;-70
2023/08/07 10:37:51;;;;;;;;;;;;;;;19.29;88.23;101508.56;10440719;28;19975;-71
2023/08/07 10:43:12;;;;;;;;;;;;;;;19.24;82.57;101491.34;10439829;28;19931;-72
2023/08/07 10:48:17;;;;;;;;;;;;;;;18.33;87.07;101502.16;10439543;28;20290;-70
2023/08/07 10:53:21;;;;;;;;;;;;;;;19.82;78.76;101490.91;10457069;28;19951;-69
2023/08/07 10:58:25;;;;;;;;;;;;;;;20.11;75.54;101498.19;10439804;28;20011;-73
2023/08/07 11:03:27;;;;;;;;;;;;;;;19.12;78.62;101517.09;10457025;28;19931;-72
2023/08/07 11:08:30;;;;;;;;;;;;;;;17.72;79.73;101522.75;10456739;28;20434;-73
2023/08/07 11:13:35;;;;;;;;;;;;;;;17.49;85.69;101535.13;10438659;28;19931;-70
2023/08/07 11:18:41;;;;;;;;;;;;;;;17.23;93.26;101549.34;10439044;28;19925;-70
2023/08/07 11:23:44;;;;;;;;;;;;;;;16.95;92.58;101537.28;10423022;28;19956;-70
2023/08/07 11:28:46;;;;;;;;;;;;;;;17.19;87.50;101533.78;10456754;28;19924;-69
2023/08/07 11:33:52;;;;;;;;;;;;;;;18.46;80.57;101520.59;10456673;28;19925;-70
2023/08/07 11:38:54;;;;;;;;;;;;;;;21.07;73.07;101519.91;10438570;28;20291;-69
2023/08/07 11:43:56;;;;;;;;;;;;;;;19.93;71.85;101511.25;10438526;28;19932;-68
2023/08/07 11:48:59;;;;;;;;;;;;;;;19.44;77.30;101526.84;10455942;28;20334;-68
2023/08/07 11:54:01;;;;;;;;;;;;;;;18.55;78.79;101530.44;10438177;28;19929;-69
2023/08/07 11:59:03;;;;;;;;;;;;;;;17.76;81.21;101530.38;10438498;28;20083;-71
2023/08/07 12:04:06;;;;;;;;;;;;;;;19.00;79.01;101526.06;10455863;28;20011;-71
2023/08/07 12:09:12;;;;;;;;;;;;;;;18.75;77.60;101542.13;10457935;28;19924;-70
2023/08/07 12:14:16;;;;;;;;;;;;;;;19.10;76.88;101532.31;10446368;28;19925;-70
2023/08/07 12:19:19;;;;;;;;;;;;;;;19.02;77.39;101542.69;10445928;28;20283;-71
2023/08/07 12:24:22;;;;;;;;;;;;;;;18.49;77.87;101527.44;10463230;28;19929;-73
2023/08/07 12:29:28;;;;;;;;;;;;;;;17.82;78.23;101548.44;10445007;28;19925;-71
2023/08/07 12:34:32;;;;;;;;;;;;;;;17.68;79.55;101543.34;10463089;28;19928;-72
2023/08/07 12:39:54;;;;;;;;;;;;;;;20.09;71.90;101535.53;10462845;28;19932;-72
2023/08/07 12:44:59;;;;;;;;;;;;;;;20.72;70.08;101530.06;10462636;28;19931;-72
2023/08/07 12:50:03;;;;;;;;;;;;;;;19.60;74.08;101550.31;10461734;28;19929;-72
2023/08/07 12:55:05;;;;;;;;;;;;;;;18.22;73.14;101539.25;10462208;28;20011;-68
2023/08/07 13:00:10;;;;;;;;;;;;;;;18.65;77.09;101543.81;10443614;28;19924;-67
2023/08/07 13:05:14;;;;;;;;;;;;;;;19.24;77.72;101552.41;10461128;28;19931;-68
2023/08/07 13:10:16;;;;;;;;;;;;;;;20.06;70.50;101540.28;10443565;28;19964;-69
2023/08/07 13:15:19;;;;;;;;;;;;;;;20.87;68.89;101538.50;10426631;28;20450;-68
2023/08/07 13:20:21;;;;;;;;;;;;;;;22.38;65.69;101523.75;10459305;28;20410;-68
2023/08/07 13:25:23;;;;;;;;;;;;;;;21.80;62.66;101530.91;10460793;28;20288;-67
2023/08/07 13:30:25;;;;;;;;;;;;;;;20.77;63.86;101532.31;10442340;28;19925;-68
2023/08/07 13:35:30;;;;;;;;;;;;;;;21.71;62.67;101531.78;10460303;28;19932;-67
2023/08/07 13:40:33;;;;;;;;;;;;;;;21.85;61.59;101543.81;10459762;28;19925;-66
2023/08/07 13:45:36;;;;;;;;;;;;;;;22.14;59.44;101548.22;10441865;28;20384;-67
2023/08/07 13:50:38;;;;;;;;;;;;;;;22.11;56.78;101543.19;10459863;28;19925;-67
2023/08/07 13:55:41;;;;;;;;;;;;;;;21.85;59.29;101542.00;10459099;28;20364;-68
2023/08/07 14:00:43;;;;;;;;;;;;;;;22.14;57.03;101545.56;10458952;28;19929;-69
2023/08/07 14:05:46;;;;;;;;;;;;;;;22.05;61.50;101541.94;10459292;28;19925;-70
2023/08/07 14:10:48;;;;;;;;;;;;;;;22.50;58.55;101543.06;10440854;28;20268;-73
2023/08/07 14:15:50;;;;;;;;;;;;;;;22.13;57.36;101546.56;10440811;28;20284;-73
2023/08/07 14:20:52;;;;;;;;;;;;;;;23.14;54.06;101546.63;10458282;28;20015;-73
2023/08/07 14:26:04;;;;;;;;;;;;;;;21.69;57.38;101547.94;10426947;28;19968;-73
2023/08/07 14:31:06;;;;;;;;;;;;;;;21.91;54.47;101545.09;10440120;28;20448;-72
2023/08/07 14:36:09;;;;;;;;;;;;;;;22.93;56.33;101557.56;10439842;28;20277;-73
2023/08/07 14:41:11;;;;;;;;;;;;;;;22.69;56.08;101563.47;10457522;28;20342;-73
2023/08/07 14:46:17;;;;;;;;;;;;;;;22.60;53.81;101566.03;10457525;28;19925;-73
2023/08/07 14:51:19;;;;;;;;;;;;;;;22.27;55.10;101560.28;10439610;28;19947;-71
2023/08/07 14:56:22;;;;;;;;;;;;;;;21.52;56.94;101580.63;10440058;28;19929;-67
2023/08/07 15:01:24;;;;;;;;;;;;;;;20.60;58.03;101573.69;10457598;28;19924;-71
2023/08/07 15:06:26;;;;;;;;;;;;;;;20.01;60.08;101572.56;10456787;28;20352;-72
2023/08/07 15:11:29;;;;;;;;;;;;;;;19.55;64.05;101584.38;10456722;28;20001;-72
2023/08/07 15:16:31;;;;;;;;;;;;;;;19.62;64.23;101594.38;10456596;28;19932;-73
2023/08/07 15:21:33;;;;;;;;;;;;;;;19.41;68.21;101594.31;10438876;28;19964;-73
2023/08/07 15:26:36;;;;;;;;;;;;;;;20.27;65.98;101588.09;10438800;28;19925;-73
2023/08/07 15:31:38;;;;;;;;;;;;;;;19.95;65.47;101589.88;10456214;28;19964;-65
2023/08/07 15:36:40;;;;;;;;;;;;;;;18.82;69.01;101590.22;10456413;28;19932;-66
2023/08/07 15:41:43;;;;;;;;;;;;;;;19.76;70.80;101603.88;10456113;28;19932;-66
2023/08/07 15:46:45;;;;;;;;;;;;;;;18.85;70.72;101599.78;10462997;28;19925;-65
2023/08/07 15:51:47;;;;;;;;;;;;;;;17.91;71.02;101607.84;10464005;28;19925;-63
2023/08/07 15:56:50;;;;;;;;;;;;;;;18.04;76.86;101610.44;10446089;28;19925;-64
2023/08/07 16:01:53;;;;;;;;;;;;;;;17.88;81.04;101613.38;10463723;28;19931;-64
2023/08/07 16:06:55;;;;;;;;;;;;;;;17.59;81.52;101618.19;10463386;28;19986;-64
2023/08/07 16:11:58;;;;;;;;;;;;;;;17.00;84.89;101617.13;10463100;28;19931;-64
2023/08/07 16:17:00;;;;;;;;;;;;;;;16.86;86.04;101623.41;10463159;28;19928;-64
2023/08/07 16:22:02;;;;;;;;;;;;;;;16.95;85.88;101615.78;10463011;28;19928;-64
2023/08/07 16:27:05;;;;;;;;;;;;;;;16.99;81.54;101615.44;10462700;28;20008;-63
2023/08/07 16:32:08;;;;;;;;;;;;;;;16.83;79.05;101618.31;10463148;28;19975;-63
2023/08/07 16:37:11;;;;;;;;;;;;;;;17.12;80.23;101614.56;10462239;28;20357;-64
2023/08/07 16:42:13;;;;;;;;;;;;;;;17.09;77.83;101611.16;10462087;28;19932;-64
2023/08/07 16:47:15;;;;;;;;;;;;;;;17.76;78.96;101606.34;10462013;28;19925;-63
2023/08/07 16:52:18;;;;;;;;;;;;;;;17.83;75.59;101595.16;10443661;28;20273;-64
2023/08/07 16:57:20;;;;;;;;;;;;;;;18.62;73.30;101586.50;10461239;28;19932;-64
2023/08/07 17:02:24;;;;;;;;;;;;;;;18.33;73.57;101580.84;10443763;28;19935;-64
2023/08/07 17:07:26;;;;;;;;;;;;;;;17.67;73.18;101578.75;10461095;28;20399;-64
2023/08/07 17:12:28;;;;;;;;;;;;;;;17.76;76.18;101580.69;10460968;28;19924;-64
2023/08/07 17:17:31;;;;;;;;;;;;;;;17.43;77.50;101587.56;10460622;28;20439;-64
2023/08/07 17:22:33;;;;;;;;;;;;;;;17.56;77.56;101584.00;10460966;28;20015;-64
2023/08/07 17:27:35;;;;;;;;;;;;;;;17.43;78.31;101592.00;10460225;28;20015;-64
2023/08/07 17:32:39;;;;;;;;;;;;;;;17.49;76.44;101590.72;10460264;28;19931;-64
2023/08/07 17:37:41;;;;;;;;;;;;;;;17.43;77.33;101576.97;10460142;28;19931;-64
2023/08/07 17:42:43;;;;;;;;;;;;;;;17.24;79.28;101571.34;10459668;28;19937;-64
2023/08/07 17:47:45;;;;;;;;;;;;;;;17.06;79.96;101576.16;10459461;28;19931;-64
2023/08/07 17:52:48;;;;;;;;;;;;;;;17.07;80.90;101556.69;10459308;28;19925;-64
2023/08/07 17:57:51;;;;;;;;;;;;;;;17.24;80.32;101560.75;10459079;28;19924;-64
2023/08/07 18:02:53;;;;;;;;;;;;;;;17.26;81.30;101565.00;10458853;28;19933;-64
2023/08/07 18:07:56;;;;;;;;;;;;;;;16.77;83.76;101563.19;10457954;28;19931;-64
2023/08/07 18:12:58;;;;;;;;;;;;;;;17.09;82.52;101563.53;10458318;28;20004;-64
2023/08/07 18:18:00;;;;;;;;;;;;;;;16.94;83.86;101559.38;10458419;28;19925;-64
2023/08/07 18:23:04;;;;;;;;;;;;;;;16.81;82.91;101556.75;10457653;28;20411;-64
2023/08/07 18:28:07;;;;;;;;;;;;;;;16.83;83.60;101546.91;10458453;28;19968;-64
2023/08/07 18:33:09;;;;;;;;;;;;;;;16.60;86.08;101556.47;10457815;28;19925;-64
2023/08/07 18:38:11;;;;;;;;;;;;;;;16.29;87.96;101547.19;10440146;28;19924;-64
2023/08/07 18:43:13;;;;;;;;;;;;;;;16.44;87.61;101551.44;10457288;28;20375;-64
2023/08/07 18:48:16;;;;;;;;;;;;;;;16.08;92.43;101545.09;10457404;28;19925;-64
2023/08/07 18:53:18;;;;;;;;;;;;;;;15.62;94.29;101540.28;10439365;28;19929;-64
2023/08/07 18:58:20;;;;;;;;;;;;;;;15.74;93.04;101538.63;10457021;28;19931;-64
2023/08/07 19:03:23;;;;;;;;;;;;;;;15.60;96.36;101544.78;10456888;28;19932;-64
2023/08/07 19:08:25;;;;;;;;;;;;;;;15.31;98.96;101552.00;10456781;28;19939;-64
2023/08/07 19:13:27;;;;;;;;;;;;;;;14.95;100.00;101549.03;10456924;28;20015;-64
2023/08/07 19:18:30;;;;;;;;;;;;;;;14.86;100.00;101546.97;10460615;28;19939;-64
2023/08/07 19:23:32;;;;;;;;;;;;;;;14.85;100.00;101548.75;10465208;28;19967;-64
2023/08/07 19:28:34;;;;;;;;;;;;;;;14.79;100.00;101551.81;10465116;28;20012;-64
2023/08/07 19:33:36;;;;;;;;;;;;;;;14.62;100.00;101554.63;10464647;28;20367;-64
2023/08/07 19:38:39;;;;;;;;;;;;;;;15.00;100.00;101546.09;10464735;28;19931;-64
2023/08/07 19:43:42;;;;;;;;;;;;;;;14.86;100.00;101546.97;10464360;28;20356;-64
2023/08/07 19:48:44;;;;;;;;;;;;;;;14.81;100.00;101549.03;10464412;28;19932;-64
2023/08/07 19:53:46;;;;;;;;;;;;;;;14.77;100.00;101548.38;10463974;28;19925;-64
2023/08/07 19:59:04;;;;;;;;;;;;;;;14.69;100.00;101545.38;10464276;28;19925;-64
2023/08/07 20:04:07;;;;;;;;;;;;;;;14.39;100.00;101540.22;10463714;28;19999;-64
2023/08/07 20:09:09;;;;;;;;;;;;;;;14.48;100.00;101537.03;10463648;28;19932;-64
2023/08/07 20:14:12;;;;;;;;;;;;;;;14.64;100.00;101529.88;10462762;28;19924;-64
2023/08/07 20:19:14;;;;;;;;;;;;;;;14.40;100.00;101526.94;10463138;28;19928;-64
2023/08/07 20:24:16;;;;;;;;;;;;;;;14.36;100.00;101529.88;10462804;28;20283;-64
2023/08/07 20:29:19;;;;;;;;;;;;;;;14.62;100.00;101521.22;10463108;23;19924;-67
2023/08/07 20:34:21;;;;;;;;;;;;;;;14.84;100.00;101518.09;10461387;28;19947;-67
2023/08/07 20:39:23;;;;;;;;;;;;;;;14.96;100.00;101527.00;10462391;28;19925;-67
2023/08/07 20:44:26;;;;;;;;;;;;;;;15.22;100.00;101516.53;10462427;28;19924;-67
2023/08/07 20:49:28;;;;;;;;;;;;;;;15.07;100.00;101510.47;10462154;28;19931;-67
2023/08/07 20:54:30;;;;;;;;;;;;;;;15.16;100.00;101494.06;10461640;28;19924;-67
2023/08/07 20:59:32;;;;;;;;;;;;;;;14.96;100.00;101494.50;10461604;28;19931;-67
2023/08/07 21:04:35;;;;;;;;;;;;;;;14.95;100.00;101485.75;10461343;28;19963;-67
2023/08/07 21:09:37;;;;;;;;;;;;;;;15.13;100.00;101482.84;10461311;28;19931;-67
2023/08/07 21:14:39;;;;;;;;;;;;;;;15.09;100.00;101470.81;10459718;28;20302;-67
2023/08/07 21:19:41;;;;;;;;;;;;;;;15.15;100.00;101463.34;10460668;28;19925;-67
2023/08/07 21:24:43;;;;;;;;;;;;;;;15.17;100.00;101456.16;10460513;28;20356;-67
2023/08/07 21:29:46;;;;;;;;;;;;;;;15.26;99.25;101446.78;10460301;28;20295;-67
2023/08/07 21:34:48;;;;;;;;;;;;;;;15.38;99.86;101445.13;10460002;28;20003;-67
2023/08/07 21:39:50;;;;;;;;;;;;;;;15.12;100.00;101444.25;10458372;28;19928;-66
2023/08/07 21:44:53;;;;;;;;;;;;;;;15.32;99.57;101435.00;10458936;28;19964;-66
2023/08/07 21:49:55;;;;;;;;;;;;;;;15.10;100.00;101439.06;10458579;28;19931;-67
2023/08/07 21:54:57;;;;;;;;;;;;;;;15.12;100.00;101431.88;10459553;28;19925;-66
2023/08/07 21:59:59;;;;;;;;;;;;;;;15.00;100.00;101430.06;10458928;28;20287;-67
2023/08/07 22:05:02;;;;;;;;;;;;;;;14.91;100.00;101413.06;10458786;28;20282;-67
2023/08/07 22:10:05;;;;;;;;;;;;;;;15.03;100.00;101414.06;10458814;28;19925;-67
2023/08/07 22:15:08;;;;;;;;;;;;;;;14.99;100.00;101410.75;10457305;28;19925;-67
2023/08/07 22:20:12;;;;;;;;;;;;;;;15.23;100.00;101405.66;10440783;28;20282;-67
2023/08/07 22:25:14;;;;;;;;;;;;;;;15.29;100.00;101401.75;10458344;28;19931;-67
2023/08/07 22:30:17;;;;;;;;;;;;;;;15.16;100.00;101396.47;10457678;28;19967;-66
2023/08/07 22:35:19;;;;;;;;;;;;;;;15.32;100.00;101396.25;10458096;28;20020;-66
2023/08/07 22:40:21;;;;;;;;;;;;;;;15.09;100.00;101389.06;10456432;28;19948;-66
2023/08/07 22:45:24;;;;;;;;;;;;;;;15.14;100.00;101390.44;10456780;28;19925;-67
2023/08/07 22:50:27;;;;;;;;;;;;;;;14.98;100.00;101392.44;10456269;28;19931;-67
2023/08/07 22:55:29;;;;;;;;;;;;;;;15.05;100.00;101383.16;10457321;28;19924;-67
2023/08/07 23:00:33;;;;;;;;;;;;;;;15.04;100.00;101377.00;10457712;28;19931;-67
2023/08/07 23:05:35;;;;;;;;;;;;;;;14.94;100.00;101383.00;10457063;28;19925;-67
2023/08/07 23:10:37;;;;;;;;;;;;;;;14.95;100.00;101375.00;10456731;28;19925;-67
2023/08/07 23:15:40;;;;;;;;;;;;;;;14.94;100.00;101367.19;10456817;28;19932;-67
2023/08/07 23:20:42;;;;;;;;;;;;;;;14.79;100.00;101374.31;10456678;28;20011;-67
2023/08/07 23:25:44;;;;;;;;;;;;;;;14.88;100.00;101360.53;10456648;28;19925;-67
2023/08/07 23:30:47;;;;;;;;;;;;;;;14.90;100.00;101355.19;10455296;28;20369;-67
2023/08/07 23:35:49;;;;;;;;;;;;;;;14.67;100.00;101358.38;10456509;28;19931;-67
2023/08/07 23:40:51;;;;;;;;;;;;;;;14.75;100.00;101349.13;10456354;28;20273;-67
2023/08/07 23:45:53;;;;;;;;;;;;;;;14.66;100.00;101350.59;10456102;28;20016;-67
2023/08/07 23:50:56;;;;;;;;;;;;;;;14.33;100.00;101354.44;10456065;28;19932;-67
2023/08/07 23:55:58;;;;;;;;;;;;;;;14.35;100.00;101352.53;10455954;28;19933;-67
